createdAt,value
2019-03-19T00:00:20.312Z,99691.69
2019-03-19T00:02:49.487Z,99699.13
2019-03-19T00:05:18.814Z,99691.41
2019-03-19T00:07:48.074Z,99688.83
2019-03-19T00:10:17.681Z,99688.25
2019-03-19T00:12:47.067Z,99694.30
2019-03-19T00:15:16.344Z,99694.66
2019-03-19T00:17:45.764Z,99701.17
2019-03-19T00:20:15.941Z,99686.61
2019-03-19T00:22:45.253Z,99696.92
2019-03-19T00:25:14.602Z,99696.68
2019-03-19T00:27:43.983Z,99700.02
2019-03-19T00:30:15.710Z,99700.36
2019-03-19T00:32:44.949Z,99704.75
2019-03-19T00:35:14.445Z,99702.50
2019-03-19T00:37:43.704Z,99698.50
2019-03-19T00:40:14.106Z,99702.83
2019-03-19T00:42:43.517Z,99712.14
2019-03-19T00:45:13.814Z,99708.41
2019-03-19T00:47:43.212Z,99704.46
2019-03-19T00:50:16.011Z,99709.69
2019-03-19T00:52:51.037Z,99702.30
2019-03-19T01:06:57.711Z,99721.88
2019-03-19T01:09:26.944Z,99724.17
2019-03-19T01:11:56.187Z,99728.16
2019-03-19T01:14:25.517Z,99722.39
2019-03-19T01:16:54.658Z,99721.06
2019-03-19T01:19:23.835Z,99717.45
2019-03-19T01:21:53.066Z,99722.20
2019-03-19T01:24:22.301Z,99726.98
2019-03-19T01:26:51.468Z,99730.72
2019-03-19T01:29:21.851Z,99730.64
2019-03-19T01:31:51.036Z,99733.28
2019-03-19T01:34:20.357Z,99738.05
2019-03-19T01:36:49.593Z,99737.86
2019-03-19T01:39:18.675Z,99735.30
2019-03-19T01:41:47.850Z,99739.98
2019-03-19T01:44:17.088Z,99735.08
2019-03-19T01:46:46.254Z,99738.69
2019-03-19T01:49:15.434Z,99747.38
2019-03-19T01:51:44.651Z,99739.66
2019-03-19T01:54:13.891Z,99739.91
2019-03-19T01:56:43.068Z,99749.06
2019-03-19T01:59:12.747Z,99751.69
2019-03-19T02:01:41.912Z,99751.06
2019-03-19T02:04:11.156Z,99745.50
2019-03-19T02:06:40.370Z,99757.70
2019-03-19T02:09:10.111Z,99758.00
2019-03-19T02:11:39.289Z,99761.62
2019-03-19T02:14:08.491Z,99757.44
2019-03-19T02:16:37.663Z,99761.80
2019-03-19T02:19:06.880Z,99774.34
2019-03-19T02:21:36.042Z,99782.17
2019-03-19T02:24:05.288Z,99780.59
2019-03-19T02:26:34.494Z,99790.23
2019-03-19T02:29:03.744Z,99793.23
2019-03-19T02:31:32.939Z,99794.80
2019-03-19T02:34:02.109Z,99793.67
2019-03-19T02:36:31.317Z,99796.08
2019-03-19T02:39:00.591Z,99797.63
2019-03-19T02:41:29.750Z,99802.36
2019-03-19T02:43:58.947Z,99811.98
2019-03-19T02:46:28.120Z,99812.07
2019-03-19T02:48:57.324Z,99800.08
2019-03-19T02:51:26.484Z,99817.94
2019-03-19T02:53:55.759Z,99821.41
2019-03-19T02:56:32.477Z,99824.42
2019-03-19T02:58:55.922Z,99820.38
2019-03-19T03:01:25.174Z,99824.14
2019-03-19T03:03:54.308Z,99832.71
2019-03-19T03:06:23.548Z,99827.94
2019-03-19T03:08:52.922Z,99827.34
2019-03-19T03:11:22.093Z,99835.66
2019-03-19T03:13:51.265Z,99837.92
2019-03-19T03:16:20.640Z,99833.94
2019-03-19T03:18:50.282Z,99843.20
2019-03-19T03:21:19.431Z,99842.75
2019-03-19T03:23:48.659Z,99844.78
2019-03-19T03:26:17.973Z,99843.72
2019-03-19T03:28:47.220Z,99843.41
2019-03-19T03:31:16.431Z,99840.70
2019-03-19T03:33:45.595Z,99851.44
2019-03-19T03:36:14.829Z,99851.36
2019-03-19T03:38:44.025Z,99856.36
2019-03-19T03:41:13.205Z,99855.08
2019-03-19T03:43:42.400Z,99865.27
2019-03-19T03:46:11.690Z,99860.89
2019-03-19T03:48:40.934Z,99868.57
2019-03-19T03:51:10.179Z,99873.50
2019-03-19T03:53:39.385Z,99874.97
2019-03-19T03:56:08.542Z,99873.83
2019-03-19T03:58:37.744Z,99887.66
2019-03-19T04:01:07.051Z,99889.85
2019-03-19T04:03:36.206Z,99900.83
2019-03-19T04:06:05.827Z,99895.45
2019-03-19T04:08:35.049Z,99909.00
2019-03-19T04:11:04.218Z,99905.53
2019-03-19T04:13:33.384Z,99907.21
2019-03-19T04:16:02.579Z,99906.65
2019-03-19T04:18:31.858Z,99907.76
2019-03-19T04:21:01.042Z,99901.84
2019-03-19T04:23:30.248Z,99905.06
2019-03-19T04:25:59.466Z,99899.52
2019-03-19T04:28:28.629Z,99903.16
2019-03-19T04:30:57.861Z,99910.77
2019-03-19T04:33:27.038Z,99907.81
2019-03-19T04:35:56.238Z,99906.94
2019-03-19T04:38:25.540Z,99913.52
2019-03-19T04:40:54.796Z,99922.16
2019-03-19T04:43:23.954Z,99919.16
2019-03-19T04:45:53.222Z,99921.70
2019-03-19T04:48:22.427Z,99927.72
2019-03-19T04:50:51.606Z,99924.98
2019-03-19T04:53:20.773Z,99924.83
2019-03-19T04:55:50.165Z,99926.33
2019-03-19T04:58:19.405Z,99935.57
2019-03-19T05:00:48.764Z,99936.05
2019-03-19T05:03:18.018Z,99939.70
2019-03-19T05:05:47.395Z,99941.54
2019-03-19T05:08:16.693Z,99936.59
2019-03-19T05:10:45.870Z,99938.67
2019-03-19T05:13:15.226Z,99940.98
2019-03-19T05:15:44.442Z,99943.70
2019-03-19T05:18:13.735Z,99952.99
2019-03-19T05:20:42.963Z,99951.73
2019-03-19T05:23:12.275Z,99949.95
2019-03-19T05:25:41.529Z,99954.34
2019-03-19T05:28:10.825Z,99954.72
2019-03-19T05:30:40.225Z,99954.22
2019-03-19T05:33:09.541Z,99959.83
2019-03-19T05:35:38.786Z,99976.63
2019-03-19T05:38:08.167Z,99973.38
2019-03-19T05:40:37.510Z,99987.13
2019-03-19T05:43:06.927Z,99980.23
2019-03-19T05:45:37.865Z,99986.52
2019-03-19T05:48:07.116Z,99987.13
2019-03-19T05:50:36.492Z,99992.27
2019-03-19T05:53:05.677Z,99989.80
2019-03-19T05:55:35.038Z,99995.70
2019-03-19T05:58:04.364Z,100001.20
2019-03-19T06:00:35.193Z,99993.31
2019-03-19T06:03:04.802Z,99997.34
2019-03-19T06:05:34.095Z,100001.22
2019-03-19T06:08:03.458Z,99999.90
2019-03-19T06:10:32.799Z,99994.86
2019-03-19T06:13:02.130Z,100000.37
2019-03-19T06:15:31.479Z,100005.14
2019-03-19T06:18:00.814Z,100007.63
2019-03-19T06:20:30.237Z,100010.64
2019-03-19T06:22:59.671Z,100021.74
2019-03-19T06:25:28.943Z,100019.43
2019-03-19T06:28:00.659Z,100014.27
2019-03-19T06:30:29.275Z,100023.73
2019-03-19T06:32:58.643Z,100011.38
2019-03-19T06:35:36.504Z,100007.12
2019-03-19T06:38:05.798Z,100014.22
2019-03-19T06:40:35.132Z,100027.75
2019-03-19T06:43:04.630Z,100031.08
2019-03-19T06:45:33.837Z,100032.74
2019-03-19T06:48:03.140Z,100031.33
2019-03-19T06:50:32.459Z,100045.94
2019-03-19T06:53:02.099Z,100042.92
2019-03-19T06:55:31.431Z,100035.47
2019-03-19T06:58:10.477Z,100039.45
2019-03-19T07:00:32.570Z,100047.23
2019-03-19T07:03:02.151Z,100053.13
2019-03-19T07:05:31.637Z,100054.02
2019-03-19T07:08:01.063Z,100050.09
2019-03-19T07:10:31.155Z,100058.55
2019-03-19T07:13:00.649Z,100058.92
2019-03-19T07:15:29.902Z,100059.16
2019-03-19T07:17:59.700Z,100055.31
2019-03-19T07:20:29.645Z,100053.50
2019-03-19T07:22:58.982Z,100063.11
2019-03-19T07:25:28.371Z,100061.35
2019-03-19T07:27:57.651Z,100064.36
2019-03-19T07:30:27.636Z,100067.08
2019-03-19T07:32:56.992Z,100076.30
2019-03-19T07:35:26.227Z,100081.47
2019-03-19T07:37:55.555Z,100079.09
2019-03-19T07:40:25.094Z,100085.89
2019-03-19T07:42:54.413Z,100092.19
2019-03-19T07:45:26.603Z,100094.13
2019-03-19T07:47:55.351Z,100098.95
2019-03-19T07:50:24.970Z,100102.59
2019-03-19T07:52:54.365Z,100119.45
2019-03-19T07:55:23.825Z,100123.25
2019-03-19T07:57:53.087Z,100129.88
2019-03-19T08:00:22.886Z,100133.28
2019-03-19T08:02:52.223Z,100136.55
2019-03-19T08:05:32.283Z,100143.66
2019-03-19T08:07:52.607Z,100143.58
2019-03-19T08:10:22.094Z,100143.35
2019-03-19T08:12:51.276Z,100143.38
2019-03-19T08:15:21.400Z,100135.22
2019-03-19T08:17:50.607Z,100143.27
2019-03-19T08:20:19.952Z,100145.81
2019-03-19T08:22:49.230Z,100148.81
2019-03-19T08:25:18.472Z,100146.14
2019-03-19T08:27:47.730Z,100140.33
2019-03-19T08:30:29.131Z,100143.89
2019-03-19T08:32:58.454Z,100147.58
2019-03-19T08:35:27.903Z,100157.98
2019-03-19T08:37:57.186Z,100157.91
2019-03-19T08:40:26.488Z,100162.67
2019-03-19T08:42:58.105Z,100157.17
2019-03-19T08:45:27.372Z,100168.12
2019-03-19T08:47:56.561Z,100176.97
2019-03-19T08:50:25.951Z,100177.88
2019-03-19T08:52:55.750Z,100180.53
2019-03-19T08:55:25.315Z,100191.53
2019-03-19T08:57:54.618Z,100190.27
2019-03-19T09:00:26.298Z,100194.69
2019-03-19T09:02:55.733Z,100198.20
2019-03-19T09:05:25.155Z,100194.78
2019-03-19T09:07:54.342Z,100204.86
2019-03-19T09:10:23.786Z,100215.67
2019-03-19T09:12:53.077Z,100217.13
2019-03-19T09:15:28.216Z,100224.58
2019-03-19T09:17:57.418Z,100234.17
2019-03-19T09:20:26.732Z,100234.58
2019-03-19T09:22:56.114Z,100228.62
2019-03-19T09:25:25.391Z,100209.89
2019-03-19T09:27:54.701Z,100225.08
2019-03-19T09:30:24.812Z,100225.58
2019-03-19T09:32:54.060Z,100233.66
2019-03-19T09:35:23.418Z,100232.77
2019-03-19T09:37:58.430Z,100246.38
2019-03-19T09:40:23.674Z,100248.69
2019-03-19T09:42:53.064Z,100251.93
2019-03-19T09:45:22.386Z,100252.20
2019-03-19T09:47:51.755Z,100250.55
2019-03-19T09:50:23.309Z,100248.04
2019-03-19T09:52:52.746Z,100250.50
2019-03-19T09:55:21.986Z,100249.01
2019-03-19T09:57:51.335Z,100250.17
2019-03-19T10:00:21.527Z,100246.67
2019-03-19T10:02:50.770Z,100254.75
2019-03-19T10:05:20.040Z,100250.67
2019-03-19T10:07:49.349Z,100256.59
2019-03-19T10:10:20.718Z,100253.23
2019-03-19T10:12:49.902Z,100256.34
2019-03-19T10:15:19.338Z,100260.08
2019-03-19T10:17:48.616Z,100259.23
2019-03-19T10:20:25.743Z,100250.15
2019-03-19T10:22:55.157Z,100267.61
2019-03-19T10:25:24.501Z,100266.33
2019-03-19T10:27:53.911Z,100265.62
2019-03-19T10:30:23.918Z,100265.45
2019-03-19T10:32:53.278Z,100274.58
2019-03-19T10:35:22.531Z,100274.43
2019-03-19T10:37:51.711Z,100278.94
2019-03-19T10:40:21.731Z,100277.08
2019-03-19T10:42:51.092Z,100281.53
2019-03-19T10:45:21.736Z,100281.91
2019-03-19T10:47:51.052Z,100279.69
2019-03-19T10:50:21.420Z,100289.50
2019-03-19T10:52:50.739Z,100287.74
2019-03-19T10:55:20.076Z,100288.89
2019-03-19T10:57:49.443Z,100285.17
2019-03-19T11:00:23.309Z,100276.73
2019-03-19T11:02:52.852Z,100279.82
2019-03-19T11:05:26.710Z,100273.64
2019-03-19T11:07:55.972Z,100283.02
2019-03-19T11:10:25.243Z,100281.64
2019-03-19T11:12:54.601Z,100285.47
2019-03-19T11:15:28.641Z,100289.94
2019-03-19T11:17:58.031Z,100288.80
2019-03-19T11:20:27.264Z,100286.68
2019-03-19T11:22:56.559Z,100283.97
2019-03-19T11:28:31.067Z,100289.00
2019-03-19T11:31:00.244Z,100282.52
2019-03-19T11:33:29.508Z,100285.33
2019-03-19T11:35:58.950Z,100285.00
2019-03-19T11:38:28.200Z,100283.86
2019-03-19T11:40:57.448Z,100286.25
2019-03-19T11:43:26.760Z,100286.45
2019-03-19T11:45:55.925Z,100291.55
2019-03-19T11:48:25.172Z,100291.97
2019-03-19T11:50:54.495Z,100292.90
2019-03-19T11:53:23.741Z,100300.84
2019-03-19T11:55:52.913Z,100295.35
2019-03-19T11:58:22.116Z,100296.59
2019-03-19T12:00:52.981Z,100297.94
2019-03-19T12:03:22.236Z,100304.28
2019-03-19T12:05:51.429Z,100305.88
2019-03-19T12:08:20.658Z,100303.19
2019-03-19T12:10:49.835Z,100315.46
2019-03-19T12:13:19.092Z,100314.28
2019-03-19T12:15:48.277Z,100320.77
2019-03-19T12:18:17.464Z,100328.31
2019-03-19T12:20:46.844Z,100330.84
2019-03-19T12:23:16.096Z,100324.67
2019-03-19T12:25:45.277Z,100320.42
2019-03-19T12:28:14.547Z,100328.31
2019-03-19T12:30:43.865Z,100318.39
2019-03-19T12:33:13.048Z,100322.16
2019-03-19T12:35:42.326Z,100312.07
2019-03-19T12:38:11.496Z,100314.82
2019-03-19T12:40:40.790Z,100308.98
2019-03-19T12:43:10.029Z,100320.95
2019-03-19T12:45:39.337Z,100322.33
2019-03-19T12:48:08.518Z,100316.33
2019-03-19T12:50:37.708Z,100327.61
2019-03-19T12:53:07.293Z,100330.00
2019-03-19T12:55:36.628Z,100338.67
2019-03-19T12:58:25.252Z,100336.82
2019-03-19T13:00:54.489Z,100355.15
2019-03-19T13:03:23.743Z,100362.50
2019-03-19T13:05:52.983Z,100362.87
2019-03-19T13:08:22.402Z,100360.39
2019-03-19T13:10:51.612Z,100364.20
2019-03-19T13:13:20.872Z,100367.84
2019-03-19T13:15:50.315Z,100363.98
2019-03-19T13:18:19.571Z,100370.23
2019-03-19T13:20:48.743Z,100367.91
2019-03-19T13:23:17.975Z,100374.06
2019-03-19T13:25:47.234Z,100377.42
2019-03-19T13:28:16.412Z,100373.69
2019-03-19T13:30:45.715Z,100374.21
2019-03-19T13:33:14.901Z,100379.36
2019-03-19T13:35:44.089Z,100381.95
2019-03-19T13:38:13.288Z,100384.60
2019-03-19T13:40:42.463Z,100376.19
2019-03-19T13:43:11.746Z,100376.89
2019-03-19T13:45:40.928Z,100380.10
2019-03-19T13:48:10.224Z,100386.51
2019-03-19T13:50:39.419Z,100387.08
2019-03-19T13:53:08.663Z,100393.92
2019-03-19T13:55:49.579Z,100393.83
2019-03-19T13:58:28.276Z,100399.02
2019-03-19T14:01:01.081Z,100408.55
2019-03-19T14:03:31.679Z,100413.52
2019-03-19T14:06:01.584Z,100405.05
2019-03-19T14:08:30.932Z,100415.97
2019-03-19T14:11:00.120Z,100414.37
2019-03-19T14:13:29.328Z,100422.06
2019-03-19T14:15:58.532Z,100433.50
2019-03-19T14:18:27.725Z,100426.50
2019-03-19T14:20:57.196Z,100427.88
2019-03-19T14:23:26.900Z,100429.14
2019-03-19T14:25:56.152Z,100429.84
2019-03-19T14:28:25.361Z,100423.69
2019-03-19T14:30:54.746Z,100429.86
2019-03-19T14:33:24.062Z,100422.34
2019-03-19T14:35:53.310Z,100423.18
2019-03-19T14:38:22.645Z,100422.86
2019-03-19T14:40:52.041Z,100420.95
2019-03-19T14:43:21.255Z,100423.22
2019-03-19T14:46:00.491Z,100426.13
2019-03-19T14:48:29.749Z,100427.17
2019-03-19T14:51:15.356Z,100429.27
2019-03-19T14:53:59.790Z,100433.69
2019-03-19T14:56:29.139Z,100430.17
2019-03-19T14:58:58.380Z,100434.95
2019-03-19T15:01:27.672Z,100440.44
2019-03-19T15:03:56.915Z,100442.33
2019-03-19T15:06:26.276Z,100440.77
2019-03-19T15:08:55.530Z,100447.28
2019-03-19T15:11:24.802Z,100446.63
2019-03-19T15:13:55.253Z,100444.19
2019-03-19T15:16:24.764Z,100453.25
2019-03-19T15:18:54.033Z,100449.46
2019-03-19T15:21:23.338Z,100456.23
2019-03-19T15:23:52.593Z,100474.14
2019-03-19T15:26:21.849Z,100480.34
2019-03-19T15:28:51.296Z,100473.47
2019-03-19T15:31:29.547Z,100473.76
2019-03-19T15:33:51.476Z,100483.17
2019-03-19T15:36:20.683Z,100478.42
2019-03-19T15:38:49.954Z,100476.88
2019-03-19T15:41:19.269Z,100480.63
2019-03-19T15:43:48.530Z,100486.64
2019-03-19T15:46:17.943Z,100496.77
2019-03-19T15:48:48.560Z,100492.69
2019-03-19T15:51:17.927Z,100496.05
2019-03-19T15:53:47.239Z,100492.56
2019-03-19T15:56:16.501Z,100492.56
2019-03-19T15:58:45.807Z,100498.04
2019-03-19T16:01:16.983Z,100498.23
2019-03-19T16:03:45.975Z,100506.52
2019-03-19T16:06:15.322Z,100500.73
2019-03-19T16:08:44.726Z,100509.65
2019-03-19T16:11:13.984Z,100504.35
2019-03-19T16:13:43.324Z,100517.40
2019-03-19T16:16:12.706Z,100516.30
2019-03-19T16:18:42.054Z,100519.70
2019-03-19T16:21:11.362Z,100522.66
2019-03-19T16:23:40.744Z,100526.90
2019-03-19T16:26:09.936Z,100525.53
2019-03-19T16:28:39.112Z,100529.64
2019-03-19T16:31:08.386Z,100528.56
2019-03-19T16:33:37.644Z,100532.27
2019-03-19T16:36:07.030Z,100543.48
2019-03-19T16:38:36.600Z,100544.71
2019-03-19T16:41:05.802Z,100551.94
2019-03-19T16:43:35.104Z,100555.05
2019-03-19T16:46:04.287Z,100564.00
2019-03-19T16:48:33.532Z,100565.97
2019-03-19T16:51:02.759Z,100569.58
2019-03-19T16:53:32.046Z,100572.77
2019-03-19T16:56:01.308Z,100575.08
2019-03-19T16:58:30.638Z,100575.84
2019-03-19T17:01:00.093Z,100578.18
2019-03-19T17:03:29.352Z,100579.55
2019-03-19T17:05:58.723Z,100581.64
2019-03-19T17:08:27.983Z,100582.55
2019-03-19T17:10:57.312Z,100591.45
2019-03-19T17:13:26.685Z,100590.94
2019-03-19T17:15:55.994Z,100594.19
2019-03-19T17:18:25.324Z,100599.99
2019-03-19T17:20:54.677Z,100600.61
2019-03-19T17:23:23.946Z,100605.81
2019-03-19T17:25:53.244Z,100605.89
2019-03-19T17:28:22.932Z,100612.77
2019-03-19T17:30:52.302Z,100612.22
2019-03-19T17:33:21.512Z,100611.40
2019-03-19T17:35:50.804Z,100618.42
2019-03-19T17:38:20.020Z,100615.05
2019-03-19T17:40:49.407Z,100623.13
2019-03-19T17:43:18.666Z,100623.67
2019-03-19T17:45:47.945Z,100631.33
2019-03-19T17:48:17.271Z,100631.34
2019-03-19T17:50:50.204Z,100637.84
2019-03-19T17:53:19.450Z,100631.75
2019-03-19T17:55:48.703Z,100641.98
2019-03-19T17:58:17.945Z,100648.73
2019-03-19T18:00:51.884Z,100646.27
2019-03-19T18:03:21.211Z,100653.77
2019-03-19T18:05:50.414Z,100655.55
2019-03-19T18:08:19.713Z,100664.91
2019-03-19T18:10:48.966Z,100666.46
2019-03-19T18:13:18.291Z,100671.87
2019-03-19T18:15:47.624Z,100669.59
2019-03-19T18:18:16.898Z,100671.85
2019-03-19T18:20:58.478Z,100676.81
2019-03-19T18:23:29.521Z,100675.27
2019-03-19T18:25:58.894Z,100675.52
2019-03-19T18:28:29.710Z,100678.09
2019-03-19T18:30:58.909Z,100678.40
2019-03-19T18:33:28.398Z,100681.91
2019-03-19T18:35:57.651Z,100685.31
2019-03-19T18:38:26.973Z,100697.80
2019-03-19T18:40:56.240Z,100693.44
2019-03-19T18:43:25.575Z,100695.47
2019-03-19T18:45:57.053Z,100698.05
2019-03-19T18:48:25.891Z,100702.44
2019-03-19T18:50:55.160Z,100701.20
2019-03-19T18:53:24.477Z,100705.09
2019-03-19T18:55:53.752Z,100716.50
2019-03-19T18:58:23.004Z,100717.78
2019-03-19T19:00:52.642Z,100714.98
2019-03-19T19:03:21.963Z,100718.55
2019-03-19T19:05:51.305Z,100716.27
2019-03-19T19:08:20.635Z,100720.90
2019-03-19T19:10:49.826Z,100721.70
2019-03-19T19:13:19.159Z,100722.98
2019-03-19T19:15:49.927Z,100720.91
2019-03-19T19:18:19.192Z,100724.34
2019-03-19T19:20:48.435Z,100720.91
2019-03-19T19:23:17.863Z,100726.27
2019-03-19T19:25:47.362Z,100725.66
2019-03-19T19:28:17.210Z,100727.22
2019-03-19T19:30:46.390Z,100722.05
2019-03-19T19:33:16.710Z,100725.78
2019-03-19T19:35:45.941Z,100728.20
2019-03-19T19:38:15.119Z,100721.80
2019-03-19T19:40:44.374Z,100729.82
2019-03-19T19:43:13.725Z,100732.23
2019-03-19T19:45:43.181Z,100730.81
2019-03-19T19:48:12.482Z,100737.16
2019-03-19T19:50:41.803Z,100736.45
2019-03-19T19:53:11.072Z,100740.33
2019-03-19T19:55:40.414Z,100736.86
2019-03-19T19:58:09.676Z,100742.05
2019-03-19T20:00:39.026Z,100744.80
2019-03-19T20:03:12.544Z,100748.03
2019-03-19T20:05:39.519Z,100748.14
2019-03-19T20:08:08.766Z,100745.66
2019-03-19T20:10:37.962Z,100747.28
2019-03-19T20:13:07.610Z,100747.13
2019-03-19T20:15:37.003Z,100753.91
2019-03-19T20:18:06.333Z,100741.75
2019-03-19T20:20:35.758Z,100750.81
2019-03-19T20:23:05.101Z,100755.87
2019-03-19T20:25:34.391Z,100757.23
2019-03-19T20:28:03.675Z,100765.87
2019-03-19T20:30:33.002Z,100764.65
2019-03-19T20:33:02.334Z,100764.94
2019-03-19T20:35:31.643Z,100769.98
2019-03-19T20:38:00.909Z,100767.44
2019-03-19T20:40:30.474Z,100774.39
2019-03-19T20:42:59.787Z,100774.92
2019-03-19T20:45:29.273Z,100777.43
2019-03-19T20:47:58.478Z,100780.66
2019-03-19T20:50:35.442Z,100771.98
2019-03-19T20:53:04.717Z,100769.13
2019-03-19T20:55:34.028Z,100772.13
2019-03-19T20:58:03.414Z,100774.73
2019-03-19T21:00:32.596Z,100781.54
2019-03-19T21:03:02.020Z,100779.07
2019-03-19T21:05:31.363Z,100776.73
2019-03-19T21:08:01.048Z,100780.57
2019-03-19T21:10:30.312Z,100782.46
2019-03-19T21:12:59.574Z,100789.34
2019-03-19T21:15:30.248Z,100788.86
2019-03-19T21:17:59.756Z,100791.87
2019-03-19T21:20:29.123Z,100796.00
2019-03-19T21:22:58.378Z,100794.61
2019-03-19T21:25:41.266Z,100787.67
2019-03-19T21:28:14.429Z,100792.02
2019-03-19T21:30:43.127Z,100795.13
2019-03-19T21:33:12.445Z,100797.94
2019-03-19T21:35:41.626Z,100802.50
2019-03-19T21:38:10.914Z,100798.98
2019-03-19T21:40:40.093Z,100800.98
2019-03-19T21:43:09.418Z,100796.63
2019-03-19T21:45:38.722Z,100811.75
2019-03-19T21:48:07.972Z,100807.54
2019-03-19T21:50:37.159Z,100810.37
2019-03-19T21:53:06.449Z,100805.05
2019-03-19T21:55:35.713Z,100808.62
2019-03-19T21:58:05.044Z,100813.18
2019-03-19T22:00:34.387Z,100815.72
2019-03-19T22:03:03.742Z,100814.73
2019-03-19T22:05:32.980Z,100819.16
2019-03-19T22:08:02.248Z,100823.83
2019-03-19T22:10:31.492Z,100821.30
2019-03-19T22:13:00.763Z,100816.20
2019-03-19T22:15:30.185Z,100821.47
2019-03-19T22:17:59.453Z,100819.42
2019-03-19T22:20:30.341Z,100822.22
2019-03-19T22:22:59.692Z,100827.08
2019-03-19T22:25:29.333Z,100825.38
2019-03-19T22:27:58.592Z,100818.41
2019-03-19T22:30:27.862Z,100828.10
2019-03-19T22:32:57.272Z,100820.32
2019-03-19T22:35:26.537Z,100827.75
2019-03-19T22:37:55.831Z,100831.13
2019-03-19T22:40:25.156Z,100829.56
2019-03-19T22:42:54.542Z,100834.05
2019-03-19T22:45:23.941Z,100836.38
2019-03-19T22:47:53.194Z,100833.00
2019-03-19T22:50:22.507Z,100844.31
2019-03-19T22:52:52.191Z,100846.66
2019-03-19T22:55:29.059Z,100845.94
2019-03-19T22:57:52.892Z,100849.77
2019-03-19T23:00:33.895Z,100848.50
2019-03-19T23:03:03.161Z,100850.78
2019-03-19T23:05:32.429Z,100857.71
2019-03-19T23:08:02.159Z,100862.44
2019-03-19T23:10:31.419Z,100866.03
2019-03-19T23:13:00.776Z,100869.98
2019-03-19T23:15:30.108Z,100869.48
2019-03-19T23:17:59.465Z,100875.78
2019-03-19T23:20:28.921Z,100868.48
2019-03-19T23:22:58.183Z,100873.82
2019-03-19T23:25:27.573Z,100875.05
2019-03-19T23:27:56.830Z,100874.40
2019-03-19T23:30:26.281Z,100874.27
2019-03-19T23:32:55.577Z,100881.43
2019-03-19T23:35:24.908Z,100875.34
2019-03-19T23:37:54.232Z,100875.83
2019-03-19T23:40:23.493Z,100879.42
2019-03-19T23:42:52.884Z,100881.42
2019-03-19T23:45:22.241Z,100881.66
2019-03-19T23:47:51.507Z,100884.01
2019-03-19T23:50:21.121Z,100891.06
2019-03-19T23:52:50.563Z,100891.92
2019-03-19T23:55:19.892Z,100895.73
2019-03-19T23:57:49.308Z,100901.80
